sensor_id;sensor_type;location;lat;lon;timestamp;P1;durP1;ratioP1;P2;durP2;ratioP2
19095;SDS011;9680;52.520;13.332;2024-03-29T00:00:37;1.50;;;0.50;;
19095;SDS011;9680;52.520;13.332;2024-03-29T00:03:04;1.97;;;0.50;;
19095;SDS011;9680;52.520;13.332;2024-03-29T00:05:30;1.97;;;0.60;;
19095;SDS011;9680;52.520;13.332;2024-03-29T00:07:56;2.37;;;0.60;;
19095;SDS011;9680;52.520;13.332;2024-03-29T00:10:22;2.53;;;0.50;;
19095;SDS011;9680;52.520;13.332;2024-03-29T00:12:47;1.23;;;0.50;;
19095;SDS011;9680;52.520;13.332;2024-03-29T00:15:14;0.67;;;0.40;;
19095;SDS011;9680;52.520;13.332;2024-03-29T00:17:39;1.50;;;0.40;;
19095;SDS011;9680;52.520;13.332;2024-03-29T00:20:07;2.57;;;0.70;;
19095;SDS011;9680;52.520;13.332;2024-03-29T00:22:33;0.80;;;0.40;;
19095;SDS011;9680;52.520;13.332;2024-03-29T00:24:59;1.83;;;0.60;;
19095;SDS011;9680;52.520;13.332;2024-03-29T00:27:25;0.60;;;0.33;;
19095;SDS011;9680;52.520;13.332;2024-03-29T00:29:50;1.80;;;0.60;;
19095;SDS011;9680;52.520;13.332;2024-03-29T00:32:17;0.77;;;0.50;;
19095;SDS011;9680;52.520;13.332;2024-03-29T00:34:42;1.03;;;0.40;;
19095;SDS011;9680;52.520;13.332;2024-03-29T00:37:09;1.27;;;0.60;;
19095;SDS011;9680;52.520;13.332;2024-03-29T00:39:35;2.27;;;0.70;;
19095;SDS011;9680;52.520;13.332;2024-03-29T00:42:01;0.50;;;0.30;;
19095;SDS011;9680;52.520;13.332;2024-03-29T00:44:26;2.50;;;0.50;;
19095;SDS011;9680;52.520;13.332;2024-03-29T00:46:52;1.67;;;0.60;;
19095;SDS011;9680;52.520;13.332;2024-03-29T00:49:18;1.97;;;0.60;;
19095;SDS011;9680;52.520;13.332;2024-03-29T00:51:43;1.73;;;0.40;;
19095;SDS011;9680;52.520;13.332;2024-03-29T00:54:10;3.70;;;0.50;;
19095;SDS011;9680;52.520;13.332;2024-03-29T00:56:36;3.25;;;0.60;;
19095;SDS011;9680;52.520;13.332;2024-03-29T00:59:01;0.63;;;0.40;;
19095;SDS011;9680;52.520;13.332;2024-03-29T01:01:28;1.93;;;0.60;;
19095;SDS011;9680;52.520;13.332;2024-03-29T01:03:54;2.10;;;0.60;;
19095;SDS011;9680;52.520;13.332;2024-03-29T01:06:19;1.83;;;0.60;;
19095;SDS011;9680;52.520;13.332;2024-03-29T01:08:45;1.50;;;0.60;;
19095;SDS011;9680;52.520;13.332;2024-03-29T01:11:12;1.90;;;0.60;;
19095;SDS011;9680;52.520;13.332;2024-03-29T01:13:38;5.20;;;0.67;;
19095;SDS011;9680;52.520;13.332;2024-03-29T01:16:04;4.97;;;0.60;;
19095;SDS011;9680;52.520;13.332;2024-03-29T01:18:29;1.03;;;0.60;;
19095;SDS011;9680;52.520;13.332;2024-03-29T01:20:55;3.37;;;0.60;;
19095;SDS011;9680;52.520;13.332;2024-03-29T01:23:21;2.73;;;0.67;;
19095;SDS011;9680;52.520;13.332;2024-03-29T01:25:46;2.37;;;0.90;;
19095;SDS011;9680;52.520;13.332;2024-03-29T01:28:13;2.63;;;0.77;;
19095;SDS011;9680;52.520;13.332;2024-03-29T01:30:39;3.03;;;0.80;;
19095;SDS011;9680;52.520;13.332;2024-03-29T01:33:05;2.20;;;0.80;;
19095;SDS011;9680;52.520;13.332;2024-03-29T01:35:30;1.93;;;0.90;;
19095;SDS011;9680;52.520;13.332;2024-03-29T01:37:56;1.97;;;0.70;;
19095;SDS011;9680;52.520;13.332;2024-03-29T01:40:21;2.17;;;0.80;;
19095;SDS011;9680;52.520;13.332;2024-03-29T01:42:47;2.13;;;0.80;;
19095;SDS011;9680;52.520;13.332;2024-03-29T01:45:14;1.20;;;0.80;;
19095;SDS011;9680;52.520;13.332;2024-03-29T01:47:41;2.40;;;0.90;;
19095;SDS011;9680;52.520;13.332;2024-03-29T01:50:08;3.53;;;1.13;;
19095;SDS011;9680;52.520;13.332;2024-03-29T01:52:34;1.53;;;0.90;;
19095;SDS011;9680;52.520;13.332;2024-03-29T01:55:01;1.33;;;0.73;;
19095;SDS011;9680;52.520;13.332;2024-03-29T01:57:27;2.10;;;0.90;;
19095;SDS011;9680;52.520;13.332;2024-03-29T01:59:54;2.53;;;0.80;;
19095;SDS011;9680;52.520;13.332;2024-03-29T02:02:23;2.37;;;0.90;;
19095;SDS011;9680;52.520;13.332;2024-03-29T02:04:50;2.03;;;0.93;;
19095;SDS011;9680;52.520;13.332;2024-03-29T02:07:17;3.03;;;1.47;;
19095;SDS011;9680;52.520;13.332;2024-03-29T02:09:44;2.60;;;1.10;;
19095;SDS011;9680;52.520;13.332;2024-03-29T02:12:11;1.70;;;1.00;;
19095;SDS011;9680;52.520;13.332;2024-03-29T02:14:37;3.13;;;1.00;;
19095;SDS011;9680;52.520;13.332;2024-03-29T02:17:05;2.80;;;1.30;;
19095;SDS011;9680;52.520;13.332;2024-03-29T02:19:33;3.60;;;1.10;;
19095;SDS011;9680;52.520;13.332;2024-03-29T02:22:00;3.77;;;1.30;;
19095;SDS011;9680;52.520;13.332;2024-03-29T02:24:31;7.40;;;1.50;;
19095;SDS011;9680;52.520;13.332;2024-03-29T02:26:58;3.17;;;1.33;;
19095;SDS011;9680;52.520;13.332;2024-03-29T02:29:25;4.37;;;1.30;;
19095;SDS011;9680;52.520;13.332;2024-03-29T02:31:52;3.73;;;1.40;;
19095;SDS011;9680;52.520;13.332;2024-03-29T02:34:18;2.53;;;1.30;;
19095;SDS011;9680;52.520;13.332;2024-03-29T02:36:45;2.30;;;1.30;;
19095;SDS011;9680;52.520;13.332;2024-03-29T02:39:11;3.20;;;1.23;;
19095;SDS011;9680;52.520;13.332;2024-03-29T02:41:39;2.00;;;1.10;;
19095;SDS011;9680;52.520;13.332;2024-03-29T02:44:06;3.20;;;1.70;;
19095;SDS011;9680;52.520;13.332;2024-03-29T02:46:32;3.80;;;1.20;;
19095;SDS011;9680;52.520;13.332;2024-03-29T02:48:58;4.03;;;1.60;;
19095;SDS011;9680;52.520;13.332;2024-03-29T02:51:24;3.57;;;1.40;;
19095;SDS011;9680;52.520;13.332;2024-03-29T02:53:50;2.33;;;1.47;;
19095;SDS011;9680;52.520;13.332;2024-03-29T02:56:17;3.70;;;1.50;;
19095;SDS011;9680;52.520;13.332;2024-03-29T02:58:47;2.77;;;1.60;;
19095;SDS011;9680;52.520;13.332;2024-03-29T03:01:14;2.30;;;1.40;;
19095;SDS011;9680;52.520;13.332;2024-03-29T03:03:39;3.70;;;1.67;;
19095;SDS011;9680;52.520;13.332;2024-03-29T03:06:06;3.77;;;1.33;;
19095;SDS011;9680;52.520;13.332;2024-03-29T03:08:32;4.43;;;1.43;;
19095;SDS011;9680;52.520;13.332;2024-03-29T03:11:16;2.67;;;1.43;;
19095;SDS011;9680;52.520;13.332;2024-03-29T03:13:43;3.80;;;1.57;;
19095;SDS011;9680;52.520;13.332;2024-03-29T03:16:10;4.67;;;1.83;;
19095;SDS011;9680;52.520;13.332;2024-03-29T03:18:37;3.03;;;1.67;;
19095;SDS011;9680;52.520;13.332;2024-03-29T03:21:04;3.43;;;1.43;;
19095;SDS011;9680;52.520;13.332;2024-03-29T03:23:30;3.57;;;1.63;;
19095;SDS011;9680;52.520;13.332;2024-03-29T03:25:57;3.63;;;1.50;;
19095;SDS011;9680;52.520;13.332;2024-03-29T03:28:24;4.07;;;1.90;;
19095;SDS011;9680;52.520;13.332;2024-03-29T03:30:51;4.50;;;2.13;;
19095;SDS011;9680;52.520;13.332;2024-03-29T03:33:19;3.00;;;1.60;;
19095;SDS011;9680;52.520;13.332;2024-03-29T03:35:46;3.57;;;1.87;;
19095;SDS011;9680;52.520;13.332;2024-03-29T03:38:12;5.77;;;1.83;;
19095;SDS011;9680;52.520;13.332;2024-03-29T03:40:39;3.83;;;1.70;;
19095;SDS011;9680;52.520;13.332;2024-03-29T03:43:05;4.00;;;1.90;;
19095;SDS011;9680;52.520;13.332;2024-03-29T03:45:35;3.50;;;1.67;;
19095;SDS011;9680;52.520;13.332;2024-03-29T03:48:02;3.87;;;1.67;;
19095;SDS011;9680;52.520;13.332;2024-03-29T03:50:30;2.97;;;1.60;;
19095;SDS011;9680;52.520;13.332;2024-03-29T03:52:56;3.57;;;1.70;;
19095;SDS011;9680;52.520;13.332;2024-03-29T03:55:22;3.53;;;1.70;;
19095;SDS011;9680;52.520;13.332;2024-03-29T03:57:48;2.53;;;1.30;;
19095;SDS011;9680;52.520;13.332;2024-03-29T04:00:15;5.27;;;1.70;;
19095;SDS011;9680;52.520;13.332;2024-03-29T04:02:46;4.40;;;1.43;;
19095;SDS011;9680;52.520;13.332;2024-03-29T04:05:13;4.93;;;1.60;;
19095;SDS011;9680;52.520;13.332;2024-03-29T04:07:40;5.00;;;1.70;;
19095;SDS011;9680;52.520;13.332;2024-03-29T04:10:07;3.03;;;1.50;;
19095;SDS011;9680;52.520;13.332;2024-03-29T04:12:33;3.77;;;1.50;;
19095;SDS011;9680;52.520;13.332;2024-03-29T04:14:59;4.50;;;1.53;;
19095;SDS011;9680;52.520;13.332;2024-03-29T04:17:25;5.23;;;1.40;;
19095;SDS011;9680;52.520;13.332;2024-03-29T04:19:52;1.90;;;1.13;;
19095;SDS011;9680;52.520;13.332;2024-03-29T04:22:18;4.83;;;1.50;;
19095;SDS011;9680;52.520;13.332;2024-03-29T04:24:45;3.57;;;1.50;;
19095;SDS011;9680;52.520;13.332;2024-03-29T04:27:11;3.00;;;1.57;;
19095;SDS011;9680;52.520;13.332;2024-03-29T04:29:38;5.77;;;1.50;;
19095;SDS011;9680;52.520;13.332;2024-03-29T04:32:03;6.20;;;1.33;;
19095;SDS011;9680;52.520;13.332;2024-03-29T04:34:31;3.80;;;1.30;;
19095;SDS011;9680;52.520;13.332;2024-03-29T04:36:56;7.43;;;1.47;;
19095;SDS011;9680;52.520;13.332;2024-03-29T04:39:23;2.43;;;1.20;;
19095;SDS011;9680;52.520;13.332;2024-03-29T04:41:51;4.53;;;1.37;;
19095;SDS011;9680;52.520;13.332;2024-03-29T04:44:23;2.00;;;1.20;;
19095;SDS011;9680;52.520;13.332;2024-03-29T04:46:50;3.47;;;1.23;;
19095;SDS011;9680;52.520;13.332;2024-03-29T04:49:18;2.80;;;1.10;;
19095;SDS011;9680;52.520;13.332;2024-03-29T04:51:48;2.63;;;1.17;;
19095;SDS011;9680;52.520;13.332;2024-03-29T04:54:15;3.43;;;1.40;;
19095;SDS011;9680;52.520;13.332;2024-03-29T04:56:42;2.70;;;1.20;;
19095;SDS011;9680;52.520;13.332;2024-03-29T04:59:10;3.10;;;1.30;;
19095;SDS011;9680;52.520;13.332;2024-03-29T05:01:36;3.10;;;1.03;;
19095;SDS011;9680;52.520;13.332;2024-03-29T05:04:03;2.67;;;1.23;;
19095;SDS011;9680;52.520;13.332;2024-03-29T05:06:31;4.93;;;1.40;;
19095;SDS011;9680;52.520;13.332;2024-03-29T05:08:57;6.00;;;1.33;;
19095;SDS011;9680;52.520;13.332;2024-03-29T05:11:24;3.67;;;1.00;;
19095;SDS011;9680;52.520;13.332;2024-03-29T05:13:51;6.17;;;1.40;;
19095;SDS011;9680;52.520;13.332;2024-03-29T05:16:19;2.27;;;1.00;;
19095;SDS011;9680;52.520;13.332;2024-03-29T05:18:47;3.77;;;1.30;;
19095;SDS011;9680;52.520;13.332;2024-03-29T05:21:13;4.63;;;1.00;;
19095;SDS011;9680;52.520;13.332;2024-03-29T05:23:39;2.20;;;1.10;;
19095;SDS011;9680;52.520;13.332;2024-03-29T05:26:05;4.20;;;1.13;;
19095;SDS011;9680;52.520;13.332;2024-03-29T05:28:32;1.67;;;1.03;;
19095;SDS011;9680;52.520;13.332;2024-03-29T05:31:08;2.73;;;1.13;;
19095;SDS011;9680;52.520;13.332;2024-03-29T05:33:39;3.07;;;1.20;;
19095;SDS011;9680;52.520;13.332;2024-03-29T05:36:06;1.60;;;0.90;;
19095;SDS011;9680;52.520;13.332;2024-03-29T05:38:35;2.67;;;1.30;;
19095;SDS011;9680;52.520;13.332;2024-03-29T05:41:02;3.93;;;1.10;;
19095;SDS011;9680;52.520;13.332;2024-03-29T05:43:29;2.57;;;1.10;;
19095;SDS011;9680;52.520;13.332;2024-03-29T05:45:55;2.07;;;0.90;;
19095;SDS011;9680;52.520;13.332;2024-03-29T05:48:22;2.50;;;1.07;;
19095;SDS011;9680;52.520;13.332;2024-03-29T05:50:50;4.70;;;1.00;;
19095;SDS011;9680;52.520;13.332;2024-03-29T05:53:16;2.40;;;1.03;;
19095;SDS011;9680;52.520;13.332;2024-03-29T05:55:43;1.63;;;0.90;;
19095;SDS011;9680;52.520;13.332;2024-03-29T05:58:09;1.97;;;1.00;;
19095;SDS011;9680;52.520;13.332;2024-03-29T06:00:36;4.07;;;1.00;;
19095;SDS011;9680;52.520;13.332;2024-03-29T06:03:03;2.80;;;1.00;;
19095;SDS011;9680;52.520;13.332;2024-03-29T06:05:30;2.67;;;0.93;;
19095;SDS011;9680;52.520;13.332;2024-03-29T06:07:57;2.00;;;0.80;;
19095;SDS011;9680;52.520;13.332;2024-03-29T06:10:24;2.40;;;0.90;;
19095;SDS011;9680;52.520;13.332;2024-03-29T06:12:51;3.70;;;1.00;;
19095;SDS011;9680;52.520;13.332;2024-03-29T06:15:17;2.20;;;1.07;;
19095;SDS011;9680;52.520;13.332;2024-03-29T06:18:01;3.07;;;1.20;;
19095;SDS011;9680;52.520;13.332;2024-03-29T06:20:28;3.37;;;1.37;;
19095;SDS011;9680;52.520;13.332;2024-03-29T06:22:55;1.63;;;0.90;;
19095;SDS011;9680;52.520;13.332;2024-03-29T06:25:23;2.57;;;1.07;;
19095;SDS011;9680;52.520;13.332;2024-03-29T06:27:49;4.73;;;1.07;;
19095;SDS011;9680;52.520;13.332;2024-03-29T06:30:16;3.60;;;1.00;;
19095;SDS011;9680;52.520;13.332;2024-03-29T06:32:42;4.97;;;1.10;;
19095;SDS011;9680;52.520;13.332;2024-03-29T06:35:10;4.13;;;1.00;;
19095;SDS011;9680;52.520;13.332;2024-03-29T06:37:35;3.73;;;1.20;;
19095;SDS011;9680;52.520;13.332;2024-03-29T06:40:03;1.67;;;0.90;;
19095;SDS011;9680;52.520;13.332;2024-03-29T06:42:32;4.90;;;1.00;;
19095;SDS011;9680;52.520;13.332;2024-03-29T06:44:58;4.93;;;0.80;;
19095;SDS011;9680;52.520;13.332;2024-03-29T06:47:27;2.90;;;1.00;;
19095;SDS011;9680;52.520;13.332;2024-03-29T06:49:54;3.67;;;0.70;;
19095;SDS011;9680;52.520;13.332;2024-03-29T06:52:21;1.83;;;0.80;;
19095;SDS011;9680;52.520;13.332;2024-03-29T06:54:47;3.37;;;0.93;;
19095;SDS011;9680;52.520;13.332;2024-03-29T06:57:14;2.83;;;0.90;;
19095;SDS011;9680;52.520;13.332;2024-03-29T06:59:46;1.47;;;0.97;;
19095;SDS011;9680;52.520;13.332;2024-03-29T07:02:13;1.83;;;0.70;;
19095;SDS011;9680;52.520;13.332;2024-03-29T07:04:39;4.85;;;1.55;;
19095;SDS011;9680;52.520;13.332;2024-03-29T07:07:06;1.50;;;0.90;;
19095;SDS011;9680;52.520;13.332;2024-03-29T07:09:33;2.77;;;0.90;;
19095;SDS011;9680;52.520;13.332;2024-03-29T07:11:59;6.32;;;1.08;;
19095;SDS011;9680;52.520;13.332;2024-03-29T07:14:26;2.63;;;0.98;;
19095;SDS011;9680;52.520;13.332;2024-03-29T07:16:55;4.18;;;0.90;;
19095;SDS011;9680;52.520;13.332;2024-03-29T07:19:22;3.22;;;0.90;;
19095;SDS011;9680;52.520;13.332;2024-03-29T07:21:49;3.28;;;0.80;;
19095;SDS011;9680;52.520;13.332;2024-03-29T07:24:18;3.87;;;0.80;;
19095;SDS011;9680;52.520;13.332;2024-03-29T07:26:45;2.42;;;0.90;;
19095;SDS011;9680;52.520;13.332;2024-03-29T07:29:12;2.08;;;1.00;;
19095;SDS011;9680;52.520;13.332;2024-03-29T07:31:38;2.63;;;0.75;;
19095;SDS011;9680;52.520;13.332;2024-03-29T07:34:06;4.38;;;0.90;;
19095;SDS011;9680;52.520;13.332;2024-03-29T07:36:33;2.72;;;0.85;;
19095;SDS011;9680;52.520;13.332;2024-03-29T07:39:01;5.60;;;0.90;;
19095;SDS011;9680;52.520;13.332;2024-03-29T07:41:29;3.78;;;0.70;;
19095;SDS011;9680;52.520;13.332;2024-03-29T07:43:56;3.40;;;0.80;;
19095;SDS011;9680;52.520;13.332;2024-03-29T07:46:27;2.13;;;0.80;;
19095;SDS011;9680;52.520;13.332;2024-03-29T07:48:54;4.03;;;0.90;;
19095;SDS011;9680;52.520;13.332;2024-03-29T07:51:22;3.45;;;1.02;;
19095;SDS011;9680;52.520;13.332;2024-03-29T07:53:48;2.67;;;1.00;;
19095;SDS011;9680;52.520;13.332;2024-03-29T07:56:15;2.60;;;0.90;;
19095;SDS011;9680;52.520;13.332;2024-03-29T07:58:42;1.90;;;0.90;;
19095;SDS011;9680;52.520;13.332;2024-03-29T08:01:09;1.45;;;0.70;;
19095;SDS011;9680;52.520;13.332;2024-03-29T08:03:35;2.10;;;0.73;;
19095;SDS011;9680;52.520;13.332;2024-03-29T08:06:02;1.83;;;0.80;;
19095;SDS011;9680;52.520;13.332;2024-03-29T08:08:32;1.63;;;0.70;;
19095;SDS011;9680;52.520;13.332;2024-03-29T08:10:59;2.92;;;0.98;;
19095;SDS011;9680;52.520;13.332;2024-03-29T08:13:26;2.45;;;0.88;;
19095;SDS011;9680;52.520;13.332;2024-03-29T08:15:56;1.65;;;0.60;;
19095;SDS011;9680;52.520;13.332;2024-03-29T08:18:24;3.15;;;0.70;;
19095;SDS011;9680;52.520;13.332;2024-03-29T08:20:51;1.70;;;0.63;;
19095;SDS011;9680;52.520;13.332;2024-03-29T08:23:17;1.67;;;0.60;;
19095;SDS011;9680;52.520;13.332;2024-03-29T08:25:45;1.63;;;0.77;;
19095;SDS011;9680;52.520;13.332;2024-03-29T08:28:13;1.42;;;0.60;;
19095;SDS011;9680;52.520;13.332;2024-03-29T08:30:39;1.58;;;0.60;;
19095;SDS011;9680;52.520;13.332;2024-03-29T08:33:06;2.55;;;0.80;;
19095;SDS011;9680;52.520;13.332;2024-03-29T08:35:33;0.90;;;0.55;;
19095;SDS011;9680;52.520;13.332;2024-03-29T08:37:59;0.88;;;0.50;;
19095;SDS011;9680;52.520;13.332;2024-03-29T08:40:27;3.17;;;0.88;;
19095;SDS011;9680;52.520;13.332;2024-03-29T08:42:57;4.10;;;1.20;;
19095;SDS011;9680;52.520;13.332;2024-03-29T08:45:24;2.20;;;1.02;;
19095;SDS011;9680;52.520;13.332;2024-03-29T08:47:51;5.15;;;1.00;;
19095;SDS011;9680;52.520;13.332;2024-03-29T08:50:18;2.08;;;0.90;;
19095;SDS011;9680;52.520;13.332;2024-03-29T08:52:44;4.43;;;1.23;;
19095;SDS011;9680;52.520;13.332;2024-03-29T08:55:11;2.15;;;0.70;;
19095;SDS011;9680;52.520;13.332;2024-03-29T08:57:38;5.40;;;0.90;;
19095;SDS011;9680;52.520;13.332;2024-03-29T09:00:07;3.03;;;1.00;;
19095;SDS011;9680;52.520;13.332;2024-03-29T09:02:35;3.28;;;0.90;;
19095;SDS011;9680;52.520;13.332;2024-03-29T09:05:01;4.63;;;1.00;;
19095;SDS011;9680;52.520;13.332;2024-03-29T09:07:28;4.13;;;0.90;;
19095;SDS011;9680;52.520;13.332;2024-03-29T09:09:55;2.20;;;0.90;;
19095;SDS011;9680;52.520;13.332;2024-03-29T09:12:21;5.70;;;0.93;;
19095;SDS011;9680;52.520;13.332;2024-03-29T09:14:48;1.90;;;0.80;;
19095;SDS011;9680;52.520;13.332;2024-03-29T09:17:17;2.38;;;1.02;;
19095;SDS011;9680;52.520;13.332;2024-03-29T09:19:44;1.60;;;0.70;;
19095;SDS011;9680;52.520;13.332;2024-03-29T09:22:10;1.80;;;1.00;;
19095;SDS011;9680;52.520;13.332;2024-03-29T09:24:37;3.47;;;0.90;;
19095;SDS011;9680;52.520;13.332;2024-03-29T09:27:04;3.00;;;0.80;;
19095;SDS011;9680;52.520;13.332;2024-03-29T09:29:31;1.55;;;0.70;;
19095;SDS011;9680;52.520;13.332;2024-03-29T09:31:57;3.33;;;1.35;;
19095;SDS011;9680;52.520;13.332;2024-03-29T09:34:28;2.65;;;1.08;;
19095;SDS011;9680;52.520;13.332;2024-03-29T09:36:55;1.63;;;0.60;;
19095;SDS011;9680;52.520;13.332;2024-03-29T09:39:22;1.35;;;0.60;;
19095;SDS011;9680;52.520;13.332;2024-03-29T09:41:49;5.30;;;1.00;;
19095;SDS011;9680;52.520;13.332;2024-03-29T09:44:16;2.63;;;0.88;;
19095;SDS011;9680;52.520;13.332;2024-03-29T09:46:43;3.78;;;1.00;;
19095;SDS011;9680;52.520;13.332;2024-03-29T09:49:10;2.95;;;0.98;;
19095;SDS011;9680;52.520;13.332;2024-03-29T09:51:38;3.55;;;0.90;;
19095;SDS011;9680;52.520;13.332;2024-03-29T09:54:06;2.17;;;0.60;;
19095;SDS011;9680;52.520;13.332;2024-03-29T09:56:38;1.55;;;0.63;;
19095;SDS011;9680;52.520;13.332;2024-03-29T09:59:04;1.98;;;0.70;;
19095;SDS011;9680;52.520;13.332;2024-03-29T10:01:31;4.32;;;0.82;;
19095;SDS011;9680;52.520;13.332;2024-03-29T10:03:58;1.58;;;0.80;;
19095;SDS011;9680;52.520;13.332;2024-03-29T10:06:26;1.45;;;0.70;;
19095;SDS011;9680;52.520;13.332;2024-03-29T10:08:56;1.40;;;0.68;;
19095;SDS011;9680;52.520;13.332;2024-03-29T10:11:23;2.75;;;0.75;;
19095;SDS011;9680;52.520;13.332;2024-03-29T10:13:50;2.58;;;0.70;;
19095;SDS011;9680;52.520;13.332;2024-03-29T10:16:18;1.48;;;0.60;;
19095;SDS011;9680;52.520;13.332;2024-03-29T10:18:47;2.35;;;0.70;;
19095;SDS011;9680;52.520;13.332;2024-03-29T10:21:13;2.25;;;0.90;;
19095;SDS011;9680;52.520;13.332;2024-03-29T10:23:40;1.75;;;0.80;;
19095;SDS011;9680;52.520;13.332;2024-03-29T10:26:09;2.38;;;0.70;;
19095;SDS011;9680;52.520;13.332;2024-03-29T10:28:38;1.60;;;0.80;;
19095;SDS011;9680;52.520;13.332;2024-03-29T10:31:05;2.42;;;0.70;;
19095;SDS011;9680;52.520;13.332;2024-03-29T10:33:32;2.45;;;0.73;;
19095;SDS011;9680;52.520;13.332;2024-03-29T10:36:00;2.83;;;0.80;;
19095;SDS011;9680;52.520;13.332;2024-03-29T10:38:30;1.05;;;0.63;;
19095;SDS011;9680;52.520;13.332;2024-03-29T10:40:56;2.80;;;0.70;;
19095;SDS011;9680;52.520;13.332;2024-03-29T10:43:24;3.10;;;1.20;;
19095;SDS011;9680;52.520;13.332;2024-03-29T10:45:52;1.83;;;0.80;;
19095;SDS011;9680;52.520;13.332;2024-03-29T10:48:24;2.03;;;0.60;;
19095;SDS011;9680;52.520;13.332;2024-03-29T10:50:53;3.17;;;0.80;;
19095;SDS011;9680;52.520;13.332;2024-03-29T10:53:22;2.35;;;0.75;;
19095;SDS011;9680;52.520;13.332;2024-03-29T10:55:50;0.73;;;0.60;;
19095;SDS011;9680;52.520;13.332;2024-03-29T10:58:19;3.55;;;1.00;;
19095;SDS011;9680;52.520;13.332;2024-03-29T11:00:53;1.83;;;0.90;;
19095;SDS011;9680;52.520;13.332;2024-03-29T11:03:23;2.38;;;0.88;;
19095;SDS011;9680;52.520;13.332;2024-03-29T11:05:58;4.88;;;0.80;;
19095;SDS011;9680;52.520;13.332;2024-03-29T11:08:31;5.13;;;0.80;;
19095;SDS011;9680;52.520;13.332;2024-03-29T11:11:00;1.70;;;0.80;;
19095;SDS011;9680;52.520;13.332;2024-03-29T11:13:33;2.85;;;0.95;;
19095;SDS011;9680;52.520;13.332;2024-03-29T11:16:13;1.85;;;0.70;;
19095;SDS011;9680;52.520;13.332;2024-03-29T11:18:44;2.40;;;0.80;;
19095;SDS011;9680;52.520;13.332;2024-03-29T11:21:36;3.33;;;0.90;;
19095;SDS011;9680;52.520;13.332;2024-03-29T11:24:07;3.35;;;0.90;;
19095;SDS011;9680;52.520;13.332;2024-03-29T11:26:39;9.68;;;1.20;;
19095;SDS011;9680;52.520;13.332;2024-03-29T11:29:17;4.72;;;0.90;;
19095;SDS011;9680;52.520;13.332;2024-03-29T11:31:46;3.17;;;0.75;;
19095;SDS011;9680;52.520;13.332;2024-03-29T11:34:14;1.90;;;0.70;;
19095;SDS011;9680;52.520;13.332;2024-03-29T11:36:44;1.42;;;0.70;;
19095;SDS011;9680;52.520;13.332;2024-03-29T11:39:19;0.80;;;0.60;;
19095;SDS011;9680;52.520;13.332;2024-03-29T11:41:46;1.60;;;0.90;;
19095;SDS011;9680;52.520;13.332;2024-03-29T11:44:14;1.20;;;0.50;;
19095;SDS011;9680;52.520;13.332;2024-03-29T11:46:40;1.27;;;0.70;;
19095;SDS011;9680;52.520;13.332;2024-03-29T11:49:10;2.17;;;0.57;;
19095;SDS011;9680;52.520;13.332;2024-03-29T11:51:36;1.35;;;0.80;;
19095;SDS011;9680;52.520;13.332;2024-03-29T11:54:03;1.35;;;0.50;;
19095;SDS011;9680;52.520;13.332;2024-03-29T11:56:30;1.15;;;0.70;;
19095;SDS011;9680;52.520;13.332;2024-03-29T11:58:56;2.13;;;0.77;;
19095;SDS011;9680;52.520;13.332;2024-03-29T12:01:25;1.10;;;0.70;;
19095;SDS011;9680;52.520;13.332;2024-03-29T12:03:52;1.33;;;0.70;;
19095;SDS011;9680;52.520;13.332;2024-03-29T12:06:21;1.33;;;0.73;;
19095;SDS011;9680;52.520;13.332;2024-03-29T12:08:48;2.47;;;0.90;;
19095;SDS011;9680;52.520;13.332;2024-03-29T12:11:15;0.95;;;0.60;;
19095;SDS011;9680;52.520;13.332;2024-03-29T12:13:42;1.40;;;0.90;;
19095;SDS011;9680;52.520;13.332;2024-03-29T12:16:10;2.10;;;0.77;;
19095;SDS011;9680;52.520;13.332;2024-03-29T12:18:37;0.80;;;0.60;;
19095;SDS011;9680;52.520;13.332;2024-03-29T12:21:04;3.35;;;0.70;;
19095;SDS011;9680;52.520;13.332;2024-03-29T12:23:32;1.85;;;0.77;;
19095;SDS011;9680;52.520;13.332;2024-03-29T12:26:00;4.25;;;0.70;;
19095;SDS011;9680;52.520;13.332;2024-03-29T12:28:27;2.28;;;0.93;;
19095;SDS011;9680;52.520;13.332;2024-03-29T12:30:55;2.38;;;1.00;;
19095;SDS011;9680;52.520;13.332;2024-03-29T12:33:23;1.70;;;0.82;;
19095;SDS011;9680;52.520;13.332;2024-03-29T12:35:50;2.38;;;0.90;;
19095;SDS011;9680;52.520;13.332;2024-03-29T12:38:20;4.50;;;0.90;;
19095;SDS011;9680;52.520;13.332;2024-03-29T12:40:49;1.83;;;0.90;;
19095;SDS011;9680;52.520;13.332;2024-03-29T12:43:19;3.45;;;1.02;;
19095;SDS011;9680;52.520;13.332;2024-03-29T12:45:47;2.25;;;0.70;;
19095;SDS011;9680;52.520;13.332;2024-03-29T12:48:16;4.68;;;0.82;;
19095;SDS011;9680;52.520;13.332;2024-03-29T12:50:44;2.30;;;0.80;;
19095;SDS011;9680;52.520;13.332;2024-03-29T12:53:12;3.03;;;0.73;;
19095;SDS011;9680;52.520;13.332;2024-03-29T12:55:40;0.82;;;0.60;;
19095;SDS011;9680;52.520;13.332;2024-03-29T12:58:11;1.65;;;0.80;;
19095;SDS011;9680;52.520;13.332;2024-03-29T13:00:39;1.63;;;0.80;;
19095;SDS011;9680;52.520;13.332;2024-03-29T13:03:06;3.47;;;1.08;;
19095;SDS011;9680;52.520;13.332;2024-03-29T13:05:34;2.35;;;0.80;;
19095;SDS011;9680;52.520;13.332;2024-03-29T13:08:05;0.88;;;0.60;;
19095;SDS011;9680;52.520;13.332;2024-03-29T13:10:34;2.40;;;0.80;;
19095;SDS011;9680;52.520;13.332;2024-03-29T13:13:01;3.35;;;1.00;;
19095;SDS011;9680;52.520;13.332;2024-03-29T13:15:31;3.30;;;0.80;;
19095;SDS011;9680;52.520;13.332;2024-03-29T13:17:59;3.60;;;1.05;;
19095;SDS011;9680;52.520;13.332;2024-03-29T13:20:26;2.63;;;0.93;;
19095;SDS011;9680;52.520;13.332;2024-03-29T13:22:53;2.53;;;1.00;;
19095;SDS011;9680;52.520;13.332;2024-03-29T13:25:20;2.03;;;0.90;;
19095;SDS011;9680;52.520;13.332;2024-03-29T13:27:48;1.77;;;0.70;;
19095;SDS011;9680;52.520;13.332;2024-03-29T13:30:18;2.20;;;0.75;;
19095;SDS011;9680;52.520;13.332;2024-03-29T13:32:47;2.28;;;0.85;;
19095;SDS011;9680;52.520;13.332;2024-03-29T13:35:14;4.70;;;0.70;;
19095;SDS011;9680;52.520;13.332;2024-03-29T13:37:42;3.05;;;0.85;;
19095;SDS011;9680;52.520;13.332;2024-03-29T13:40:11;2.28;;;0.80;;
19095;SDS011;9680;52.520;13.332;2024-03-29T13:42:38;3.65;;;0.88;;
19095;SDS011;9680;52.520;13.332;2024-03-29T13:45:06;2.53;;;0.77;;
19095;SDS011;9680;52.520;13.332;2024-03-29T13:47:35;1.83;;;0.90;;
19095;SDS011;9680;52.520;13.332;2024-03-29T13:50:04;2.85;;;0.80;;
19095;SDS011;9680;52.520;13.332;2024-03-29T13:52:31;1.70;;;0.70;;
19095;SDS011;9680;52.520;13.332;2024-03-29T13:54:58;1.50;;;0.70;;
19095;SDS011;9680;52.520;13.332;2024-03-29T13:57:25;1.60;;;0.70;;
19095;SDS011;9680;52.520;13.332;2024-03-29T13:59:52;2.60;;;0.95;;
19095;SDS011;9680;52.520;13.332;2024-03-29T14:02:19;3.05;;;0.90;;
19095;SDS011;9680;52.520;13.332;2024-03-29T14:04:46;2.25;;;0.88;;
19095;SDS011;9680;52.520;13.332;2024-03-29T14:07:16;0.90;;;0.60;;
19095;SDS011;9680;52.520;13.332;2024-03-29T14:09:43;2.03;;;0.80;;
19095;SDS011;9680;52.520;13.332;2024-03-29T14:12:11;2.55;;;0.80;;
19095;SDS011;9680;52.520;13.332;2024-03-29T14:14:38;1.58;;;0.70;;
19095;SDS011;9680;52.520;13.332;2024-03-29T14:17:06;2.50;;;0.70;;
19095;SDS011;9680;52.520;13.332;2024-03-29T14:19:34;1.88;;;0.88;;
19095;SDS011;9680;52.520;13.332;2024-03-29T14:22:01;2.83;;;0.63;;
19095;SDS011;9680;52.520;13.332;2024-03-29T14:24:29;3.58;;;0.93;;
19095;SDS011;9680;52.520;13.332;2024-03-29T14:26:58;0.95;;;0.60;;
19095;SDS011;9680;52.520;13.332;2024-03-29T14:29:24;2.78;;;0.80;;
19095;SDS011;9680;52.520;13.332;2024-03-29T14:31:51;3.70;;;0.50;;
19095;SDS011;9680;52.520;13.332;2024-03-29T14:34:19;2.38;;;1.10;;
19095;SDS011;9680;52.520;13.332;2024-03-29T14:36:46;1.70;;;0.80;;
19095;SDS011;9680;52.520;13.332;2024-03-29T14:39:13;1.98;;;0.70;;
19095;SDS011;9680;52.520;13.332;2024-03-29T14:41:42;1.75;;;1.00;;
19095;SDS011;9680;52.520;13.332;2024-03-29T14:44:12;2.25;;;0.70;;
19095;SDS011;9680;52.520;13.332;2024-03-29T14:46:39;1.38;;;0.90;;
19095;SDS011;9680;52.520;13.332;2024-03-29T14:49:06;2.30;;;0.77;;